sensor_id;sensor_type;location;lat;lon;timestamp;P1;durP1;ratioP1;P2;durP2;ratioP2
5493;SDS011;2769;49.864;8.656;2023-09-12T00:01:37;14.90;;;7.10;;
5493;SDS011;2769;49.864;8.656;2023-09-12T00:04:27;14.90;;;6.40;;
5493;SDS011;2769;49.864;8.656;2023-09-12T00:07:16;17.53;;;7.60;;
5493;SDS011;2769;49.864;8.656;2023-09-12T00:10:04;12.40;;;6.40;;
5493;SDS011;2769;49.864;8.656;2023-09-12T00:12:53;18.43;;;6.77;;
5493;SDS011;2769;49.864;8.656;2023-09-12T00:15:41;13.43;;;7.37;;
5493;SDS011;2769;49.864;8.656;2023-09-12T00:18:30;25.53;;;7.87;;
5493;SDS011;2769;49.864;8.656;2023-09-12T00:21:19;19.83;;;7.90;;
5493;SDS011;2769;49.864;8.656;2023-09-12T00:24:08;16.60;;;7.77;;
5493;SDS011;2769;49.864;8.656;2023-09-12T00:26:56;14.73;;;7.30;;
5493;SDS011;2769;49.864;8.656;2023-09-12T00:29:44;11.30;;;6.60;;
5493;SDS011;2769;49.864;8.656;2023-09-12T00:32:32;26.87;;;7.20;;
5493;SDS011;2769;49.864;8.656;2023-09-12T00:35:21;13.77;;;7.13;;
5493;SDS011;2769;49.864;8.656;2023-09-12T00:38:10;16.10;;;7.27;;
5493;SDS011;2769;49.864;8.656;2023-09-12T00:40:58;20.90;;;7.27;;
5493;SDS011;2769;49.864;8.656;2023-09-12T00:43:47;16.30;;;7.27;;
5493;SDS011;2769;49.864;8.656;2023-09-12T00:46:35;24.13;;;8.03;;
5493;SDS011;2769;49.864;8.656;2023-09-12T00:49:24;12.67;;;7.40;;
5493;SDS011;2769;49.864;8.656;2023-09-12T00:52:13;16.33;;;6.63;;
5493;SDS011;2769;49.864;8.656;2023-09-12T00:55:02;16.60;;;7.77;;
5493;SDS011;2769;49.864;8.656;2023-09-12T00:57:51;17.23;;;7.90;;
5493;SDS011;2769;49.864;8.656;2023-09-12T01:00:40;15.17;;;6.83;;
5493;SDS011;2769;49.864;8.656;2023-09-12T01:03:29;19.13;;;7.43;;
5493;SDS011;2769;49.864;8.656;2023-09-12T01:06:17;20.30;;;7.90;;
5493;SDS011;2769;49.864;8.656;2023-09-12T01:09:07;17.60;;;6.43;;
5493;SDS011;2769;49.864;8.656;2023-09-12T01:11:57;14.57;;;6.57;;
5493;SDS011;2769;49.864;8.656;2023-09-12T01:14:45;14.83;;;6.90;;
5493;SDS011;2769;49.864;8.656;2023-09-12T01:17:33;16.70;;;7.13;;
5493;SDS011;2769;49.864;8.656;2023-09-12T01:20:23;15.53;;;7.07;;
5493;SDS011;2769;49.864;8.656;2023-09-12T01:23:18;13.50;;;6.80;;
5493;SDS011;2769;49.864;8.656;2023-09-12T01:26:29;18.90;;;7.87;;
5493;SDS011;2769;49.864;8.656;2023-09-12T01:29:19;20.97;;;7.37;;
5493;SDS011;2769;49.864;8.656;2023-09-12T01:32:09;16.93;;;7.10;;
5493;SDS011;2769;49.864;8.656;2023-09-12T01:34:58;18.10;;;7.77;;
5493;SDS011;2769;49.864;8.656;2023-09-12T01:37:46;15.07;;;7.53;;
5493;SDS011;2769;49.864;8.656;2023-09-12T01:40:36;26.90;;;8.10;;
5493;SDS011;2769;49.864;8.656;2023-09-12T01:43:27;17.03;;;7.40;;
5493;SDS011;2769;49.864;8.656;2023-09-12T01:46:18;19.00;;;7.40;;
5493;SDS011;2769;49.864;8.656;2023-09-12T01:49:07;18.43;;;7.87;;
5493;SDS011;2769;49.864;8.656;2023-09-12T01:51:55;31.40;;;8.30;;
5493;SDS011;2769;49.864;8.656;2023-09-12T01:54:45;15.73;;;7.60;;
5493;SDS011;2769;49.864;8.656;2023-09-12T01:57:35;13.60;;;7.20;;
5493;SDS011;2769;49.864;8.656;2023-09-12T02:00:23;19.30;;;7.40;;
5493;SDS011;2769;49.864;8.656;2023-09-12T02:03:14;17.20;;;7.97;;
5493;SDS011;2769;49.864;8.656;2023-09-12T02:06:02;18.43;;;7.67;;
5493;SDS011;2769;49.864;8.656;2023-09-12T02:08:50;21.43;;;7.80;;
5493;SDS011;2769;49.864;8.656;2023-09-12T02:11:39;16.60;;;7.73;;
5493;SDS011;2769;49.864;8.656;2023-09-12T02:14:27;20.77;;;8.60;;
5493;SDS011;2769;49.864;8.656;2023-09-12T02:17:15;17.87;;;7.90;;
5493;SDS011;2769;49.864;8.656;2023-09-12T02:20:05;19.40;;;7.20;;
5493;SDS011;2769;49.864;8.656;2023-09-12T02:22:55;12.70;;;7.60;;
5493;SDS011;2769;49.864;8.656;2023-09-12T02:25:43;17.67;;;7.67;;
5493;SDS011;2769;49.864;8.656;2023-09-12T02:28:31;14.37;;;7.67;;
5493;SDS011;2769;49.864;8.656;2023-09-12T02:31:19;12.77;;;7.20;;
5493;SDS011;2769;49.864;8.656;2023-09-12T02:34:08;13.93;;;8.00;;
5493;SDS011;2769;49.864;8.656;2023-09-12T02:36:57;17.53;;;7.83;;
5493;SDS011;2769;49.864;8.656;2023-09-12T02:39:45;11.57;;;7.37;;
5493;SDS011;2769;49.864;8.656;2023-09-12T02:42:34;12.40;;;7.07;;
5493;SDS011;2769;49.864;8.656;2023-09-12T02:45:22;12.70;;;7.40;;
5493;SDS011;2769;49.864;8.656;2023-09-12T02:48:10;18.50;;;7.07;;
5493;SDS011;2769;49.864;8.656;2023-09-12T02:50:59;19.53;;;7.53;;
5493;SDS011;2769;49.864;8.656;2023-09-12T02:53:49;20.40;;;8.03;;
5493;SDS011;2769;49.864;8.656;2023-09-12T02:56:37;19.90;;;7.47;;
5493;SDS011;2769;49.864;8.656;2023-09-12T02:59:25;18.80;;;7.23;;
5493;SDS011;2769;49.864;8.656;2023-09-12T03:02:13;20.73;;;9.60;;
5493;SDS011;2769;49.864;8.656;2023-09-12T03:05:02;27.83;;;11.20;;
5493;SDS011;2769;49.864;8.656;2023-09-12T03:07:50;21.63;;;11.20;;
5493;SDS011;2769;49.864;8.656;2023-09-12T03:10:40;28.10;;;13.40;;
5493;SDS011;2769;49.864;8.656;2023-09-12T03:13:28;28.50;;;13.50;;
5493;SDS011;2769;49.864;8.656;2023-09-12T03:16:16;32.97;;;13.10;;
5493;SDS011;2769;49.864;8.656;2023-09-12T03:19:04;24.30;;;13.27;;
5493;SDS011;2769;49.864;8.656;2023-09-12T03:21:53;33.37;;;14.20;;
5493;SDS011;2769;49.864;8.656;2023-09-12T03:24:41;44.07;;;22.13;;
5493;SDS011;2769;49.864;8.656;2023-09-12T03:27:33;42.00;;;22.07;;
5493;SDS011;2769;49.864;8.656;2023-09-12T03:30:21;50.80;;;24.50;;
5493;SDS011;2769;49.864;8.656;2023-09-12T03:33:10;46.70;;;21.93;;
5493;SDS011;2769;49.864;8.656;2023-09-12T03:35:58;28.53;;;14.80;;
5493;SDS011;2769;49.864;8.656;2023-09-12T03:38:47;33.03;;;15.40;;
5493;SDS011;2769;49.864;8.656;2023-09-12T03:41:35;30.97;;;13.47;;
5493;SDS011;2769;49.864;8.656;2023-09-12T03:44:25;28.23;;;12.87;;
5493;SDS011;2769;49.864;8.656;2023-09-12T03:47:13;20.20;;;10.13;;
5493;SDS011;2769;49.864;8.656;2023-09-12T03:50:02;15.73;;;9.20;;
5493;SDS011;2769;49.864;8.656;2023-09-12T03:52:51;26.47;;;8.67;;
5493;SDS011;2769;49.864;8.656;2023-09-12T03:55:39;17.47;;;9.40;;
5493;SDS011;2769;49.864;8.656;2023-09-12T03:58:27;14.67;;;8.73;;
5493;SDS011;2769;49.864;8.656;2023-09-12T04:01:17;17.03;;;8.10;;
5493;SDS011;2769;49.864;8.656;2023-09-12T04:04:05;17.07;;;9.13;;
5493;SDS011;2769;49.864;8.656;2023-09-12T04:06:54;19.67;;;8.70;;
5493;SDS011;2769;49.864;8.656;2023-09-12T04:09:42;12.77;;;8.50;;
5493;SDS011;2769;49.864;8.656;2023-09-12T04:12:31;16.60;;;8.87;;
5493;SDS011;2769;49.864;8.656;2023-09-12T04:15:19;13.30;;;7.70;;
5493;SDS011;2769;49.864;8.656;2023-09-12T04:18:09;15.33;;;7.73;;
5493;SDS011;2769;49.864;8.656;2023-09-12T04:20:57;14.13;;;7.03;;
5493;SDS011;2769;49.864;8.656;2023-09-12T04:23:46;17.23;;;8.03;;
5493;SDS011;2769;49.864;8.656;2023-09-12T04:26:34;13.80;;;6.83;;
5493;SDS011;2769;49.864;8.656;2023-09-12T04:29:22;13.97;;;7.47;;
5493;SDS011;2769;49.864;8.656;2023-09-12T04:32:11;18.77;;;7.90;;
5493;SDS011;2769;49.864;8.656;2023-09-12T04:35:01;17.77;;;8.47;;
5493;SDS011;2769;49.864;8.656;2023-09-12T04:37:49;19.77;;;8.30;;
5493;SDS011;2769;49.864;8.656;2023-09-12T04:40:38;20.60;;;7.93;;
5493;SDS011;2769;49.864;8.656;2023-09-12T04:43:27;19.57;;;7.63;;
5493;SDS011;2769;49.864;8.656;2023-09-12T04:46:15;14.70;;;8.90;;
5493;SDS011;2769;49.864;8.656;2023-09-12T04:49:04;22.77;;;7.23;;
5493;SDS011;2769;49.864;8.656;2023-09-12T04:51:53;17.20;;;7.70;;
5493;SDS011;2769;49.864;8.656;2023-09-12T04:54:42;9.90;;;6.83;;
5493;SDS011;2769;49.864;8.656;2023-09-12T04:57:30;21.97;;;8.00;;
5493;SDS011;2769;49.864;8.656;2023-09-12T05:00:20;16.53;;;7.90;;
5493;SDS011;2769;49.864;8.656;2023-09-12T05:03:08;14.80;;;7.30;;
5493;SDS011;2769;49.864;8.656;2023-09-12T05:05:56;17.67;;;7.60;;
5493;SDS011;2769;49.864;8.656;2023-09-12T05:08:47;19.83;;;8.30;;
5493;SDS011;2769;49.864;8.656;2023-09-12T05:11:35;17.93;;;7.67;;
5493;SDS011;2769;49.864;8.656;2023-09-12T05:14:24;13.33;;;7.60;;
5493;SDS011;2769;49.864;8.656;2023-09-12T05:17:12;14.47;;;7.47;;
5493;SDS011;2769;49.864;8.656;2023-09-12T05:20:00;13.90;;;7.40;;
5493;SDS011;2769;49.864;8.656;2023-09-12T05:22:50;10.73;;;7.20;;
5493;SDS011;2769;49.864;8.656;2023-09-12T05:25:40;13.40;;;7.40;;
5493;SDS011;2769;49.864;8.656;2023-09-12T05:28:28;17.20;;;7.83;;
5493;SDS011;2769;49.864;8.656;2023-09-12T05:31:16;20.30;;;8.03;;
5493;SDS011;2769;49.864;8.656;2023-09-12T05:34:05;14.00;;;7.20;;
5493;SDS011;2769;49.864;8.656;2023-09-12T05:36:53;13.53;;;7.20;;
5493;SDS011;2769;49.864;8.656;2023-09-12T05:39:41;11.30;;;7.00;;
5493;SDS011;2769;49.864;8.656;2023-09-12T05:42:11;21.40;;;7.60;;
5493;SDS011;2769;49.864;8.656;2023-09-12T05:44:41;16.93;;;7.20;;
5493;SDS011;2769;49.864;8.656;2023-09-12T05:47:10;15.70;;;8.03;;
5493;SDS011;2769;49.864;8.656;2023-09-12T05:49:38;15.23;;;7.07;;
5493;SDS011;2769;49.864;8.656;2023-09-12T05:52:06;14.20;;;7.40;;
5493;SDS011;2769;49.864;8.656;2023-09-12T05:54:34;19.10;;;6.70;;
5493;SDS011;2769;49.864;8.656;2023-09-12T05:57:02;13.23;;;7.90;;
5493;SDS011;2769;49.864;8.656;2023-09-12T05:59:34;11.83;;;6.80;;
5493;SDS011;2769;49.864;8.656;2023-09-12T06:02:03;11.33;;;7.07;;
5493;SDS011;2769;49.864;8.656;2023-09-12T06:04:32;22.10;;;7.40;;
5493;SDS011;2769;49.864;8.656;2023-09-12T06:07:00;19.80;;;7.23;;
5493;SDS011;2769;49.864;8.656;2023-09-12T06:09:29;11.70;;;6.80;;
5493;SDS011;2769;49.864;8.656;2023-09-12T06:11:57;11.30;;;6.60;;
5493;SDS011;2769;49.864;8.656;2023-09-12T06:14:25;11.73;;;6.70;;
5493;SDS011;2769;49.864;8.656;2023-09-12T06:16:54;17.17;;;7.07;;
5493;SDS011;2769;49.864;8.656;2023-09-12T06:19:22;21.23;;;7.47;;
5493;SDS011;2769;49.864;8.656;2023-09-12T06:21:51;18.00;;;7.90;;
5493;SDS011;2769;49.864;8.656;2023-09-12T06:24:20;20.67;;;7.20;;
5493;SDS011;2769;49.864;8.656;2023-09-12T06:26:49;13.30;;;7.27;;
5493;SDS011;2769;49.864;8.656;2023-09-12T06:29:17;14.10;;;7.60;;
5493;SDS011;2769;49.864;8.656;2023-09-12T06:31:45;14.33;;;7.70;;
5493;SDS011;2769;49.864;8.656;2023-09-12T06:34:14;17.90;;;8.03;;
5493;SDS011;2769;49.864;8.656;2023-09-12T06:36:42;18.43;;;8.73;;
5493;SDS011;2769;49.864;8.656;2023-09-12T06:39:11;14.07;;;8.30;;
5493;SDS011;2769;49.864;8.656;2023-09-12T06:41:39;21.43;;;8.60;;
5493;SDS011;2769;49.864;8.656;2023-09-12T06:44:07;17.13;;;8.77;;
5493;SDS011;2769;49.864;8.656;2023-09-12T06:46:35;18.03;;;8.53;;
5493;SDS011;2769;49.864;8.656;2023-09-12T06:49:04;24.43;;;9.37;;
5493;SDS011;2769;49.864;8.656;2023-09-12T06:51:34;16.43;;;7.83;;
5493;SDS011;2769;49.864;8.656;2023-09-12T06:54:04;16.57;;;7.83;;
5493;SDS011;2769;49.864;8.656;2023-09-12T06:56:32;14.70;;;8.50;;
5493;SDS011;2769;49.864;8.656;2023-09-12T06:59:04;14.73;;;9.47;;
5493;SDS011;2769;49.864;8.656;2023-09-12T07:01:32;20.87;;;9.43;;
5493;SDS011;2769;49.864;8.656;2023-09-12T07:04:00;23.90;;;8.67;;
5493;SDS011;2769;49.864;8.656;2023-09-12T07:06:29;24.80;;;9.70;;
5493;SDS011;2769;49.864;8.656;2023-09-12T07:09:00;20.10;;;9.23;;
5493;SDS011;2769;49.864;8.656;2023-09-12T07:11:29;21.30;;;9.10;;
5493;SDS011;2769;49.864;8.656;2023-09-12T07:13:57;13.93;;;8.63;;
5493;SDS011;2769;49.864;8.656;2023-09-12T07:16:25;15.77;;;8.77;;
5493;SDS011;2769;49.864;8.656;2023-09-12T07:18:52;16.80;;;9.27;;
5493;SDS011;2769;49.864;8.656;2023-09-12T07:21:21;15.97;;;8.80;;
5493;SDS011;2769;49.864;8.656;2023-09-12T07:23:49;13.60;;;8.63;;
5493;SDS011;2769;49.864;8.656;2023-09-12T07:26:18;15.87;;;8.17;;
5493;SDS011;2769;49.864;8.656;2023-09-12T07:28:46;21.47;;;9.47;;
5493;SDS011;2769;49.864;8.656;2023-09-12T07:31:14;23.97;;;10.57;;
5493;SDS011;2769;49.864;8.656;2023-09-12T07:33:42;16.73;;;8.87;;
5493;SDS011;2769;49.864;8.656;2023-09-12T07:36:10;16.57;;;9.67;;
5493;SDS011;2769;49.864;8.656;2023-09-12T07:38:38;22.90;;;9.87;;
5493;SDS011;2769;49.864;8.656;2023-09-12T07:41:08;24.70;;;8.77;;
5493;SDS011;2769;49.864;8.656;2023-09-12T07:43:38;22.87;;;9.43;;
5493;SDS011;2769;49.864;8.656;2023-09-12T07:46:08;20.40;;;8.00;;
5493;SDS011;2769;49.864;8.656;2023-09-12T07:48:36;21.20;;;9.27;;
5493;SDS011;2769;49.864;8.656;2023-09-12T07:51:10;17.67;;;8.80;;
5493;SDS011;2769;49.864;8.656;2023-09-12T07:53:39;16.17;;;7.73;;
5493;SDS011;2769;49.864;8.656;2023-09-12T07:56:08;25.07;;;9.00;;
5493;SDS011;2769;49.864;8.656;2023-09-12T07:58:38;19.03;;;9.30;;
5493;SDS011;2769;49.864;8.656;2023-09-12T08:01:06;33.03;;;9.23;;
5493;SDS011;2769;49.864;8.656;2023-09-12T08:03:35;17.40;;;8.90;;
5493;SDS011;2769;49.864;8.656;2023-09-12T08:06:04;18.10;;;9.50;;
5493;SDS011;2769;49.864;8.656;2023-09-12T08:08:32;16.67;;;8.40;;
5493;SDS011;2769;49.864;8.656;2023-09-12T08:11:00;23.43;;;9.10;;
5493;SDS011;2769;49.864;8.656;2023-09-12T08:13:28;26.77;;;9.40;;
5493;SDS011;2769;49.864;8.656;2023-09-12T08:15:58;24.53;;;9.70;;
5493;SDS011;2769;49.864;8.656;2023-09-12T08:18:28;22.17;;;8.17;;
5493;SDS011;2769;49.864;8.656;2023-09-12T08:20:57;20.53;;;8.77;;
5493;SDS011;2769;49.864;8.656;2023-09-12T08:23:25;16.83;;;8.20;;
5493;SDS011;2769;49.864;8.656;2023-09-12T08:25:53;20.10;;;9.03;;
5493;SDS011;2769;49.864;8.656;2023-09-12T08:28:21;13.87;;;7.70;;
5493;SDS011;2769;49.864;8.656;2023-09-12T08:30:49;17.83;;;8.93;;
5493;SDS011;2769;49.864;8.656;2023-09-12T08:33:19;15.67;;;7.70;;
5493;SDS011;2769;49.864;8.656;2023-09-12T08:35:47;16.27;;;7.83;;
5493;SDS011;2769;49.864;8.656;2023-09-12T08:38:15;13.43;;;7.27;;
5493;SDS011;2769;49.864;8.656;2023-09-12T08:40:47;17.43;;;8.13;;
5493;SDS011;2769;49.864;8.656;2023-09-12T08:43:16;20.27;;;8.33;;
5493;SDS011;2769;49.864;8.656;2023-09-12T08:45:44;22.03;;;9.00;;
5493;SDS011;2769;49.864;8.656;2023-09-12T08:48:13;24.50;;;8.47;;
5493;SDS011;2769;49.864;8.656;2023-09-12T08:50:43;19.23;;;8.40;;
5493;SDS011;2769;49.864;8.656;2023-09-12T08:53:11;20.67;;;7.87;;
5493;SDS011;2769;49.864;8.656;2023-09-12T08:55:39;17.50;;;7.90;;
5493;SDS011;2769;49.864;8.656;2023-09-12T08:58:10;14.80;;;7.50;;
5493;SDS011;2769;49.864;8.656;2023-09-12T09:00:37;15.50;;;7.70;;
5493;SDS011;2769;49.864;8.656;2023-09-12T09:03:06;23.33;;;7.83;;
5493;SDS011;2769;49.864;8.656;2023-09-12T09:05:34;17.63;;;7.10;;
5493;SDS011;2769;49.864;8.656;2023-09-12T09:08:04;17.70;;;6.83;;
5493;SDS011;2769;49.864;8.656;2023-09-12T09:10:32;13.20;;;7.40;;
5493;SDS011;2769;49.864;8.656;2023-09-12T09:13:15;14.30;;;6.87;;
5493;SDS011;2769;49.864;8.656;2023-09-12T09:15:43;21.00;;;7.10;;
5493;SDS011;2769;49.864;8.656;2023-09-12T09:18:11;13.63;;;6.60;;
5493;SDS011;2769;49.864;8.656;2023-09-12T09:20:40;11.67;;;7.20;;
5493;SDS011;2769;49.864;8.656;2023-09-12T09:23:10;17.03;;;6.60;;
5493;SDS011;2769;49.864;8.656;2023-09-12T09:25:39;21.87;;;7.00;;
5493;SDS011;2769;49.864;8.656;2023-09-12T09:28:15;18.47;;;8.00;;
5493;SDS011;2769;49.864;8.656;2023-09-12T09:30:44;14.50;;;7.77;;
5493;SDS011;2769;49.864;8.656;2023-09-12T09:33:14;13.63;;;6.93;;
5493;SDS011;2769;49.864;8.656;2023-09-12T09:35:43;17.73;;;6.50;;
5493;SDS011;2769;49.864;8.656;2023-09-12T09:38:14;15.20;;;7.33;;
5493;SDS011;2769;49.864;8.656;2023-09-12T09:40:45;13.57;;;6.90;;
5493;SDS011;2769;49.864;8.656;2023-09-12T09:43:13;25.80;;;7.47;;
5493;SDS011;2769;49.864;8.656;2023-09-12T09:45:47;19.90;;;7.60;;
5493;SDS011;2769;49.864;8.656;2023-09-12T09:48:18;29.90;;;6.93;;
5493;SDS011;2769;49.864;8.656;2023-09-12T09:50:47;13.27;;;7.07;;
5493;SDS011;2769;49.864;8.656;2023-09-12T09:53:17;14.43;;;6.80;;
5493;SDS011;2769;49.864;8.656;2023-09-12T09:55:45;19.77;;;7.30;;
5493;SDS011;2769;49.864;8.656;2023-09-12T09:58:14;21.23;;;6.77;;
5493;SDS011;2769;49.864;8.656;2023-09-12T10:00:44;12.87;;;6.90;;
5493;SDS011;2769;49.864;8.656;2023-09-12T10:03:14;10.27;;;7.20;;
5493;SDS011;2769;49.864;8.656;2023-09-12T10:05:45;16.00;;;7.43;;
5493;SDS011;2769;49.864;8.656;2023-09-12T10:08:13;14.27;;;6.90;;
5493;SDS011;2769;49.864;8.656;2023-09-12T10:10:45;13.20;;;6.70;;
5493;SDS011;2769;49.864;8.656;2023-09-12T10:13:13;14.57;;;6.77;;
5493;SDS011;2769;49.864;8.656;2023-09-12T10:15:42;12.07;;;6.67;;
5493;SDS011;2769;49.864;8.656;2023-09-12T10:18:14;14.23;;;6.40;;
5493;SDS011;2769;49.864;8.656;2023-09-12T10:20:50;11.23;;;6.93;;
5493;SDS011;2769;49.864;8.656;2023-09-12T10:23:24;13.93;;;6.30;;
5493;SDS011;2769;49.864;8.656;2023-09-12T10:25:58;14.63;;;7.20;;
5493;SDS011;2769;49.864;8.656;2023-09-12T10:28:26;12.97;;;7.23;;
5493;SDS011;2769;49.864;8.656;2023-09-12T10:30:54;13.80;;;7.67;;
5493;SDS011;2769;49.864;8.656;2023-09-12T10:33:23;18.20;;;8.20;;
5493;SDS011;2769;49.864;8.656;2023-09-12T10:35:52;26.73;;;8.90;;
5493;SDS011;2769;49.864;8.656;2023-09-12T10:38:20;26.60;;;9.63;;
5493;SDS011;2769;49.864;8.656;2023-09-12T10:40:48;13.87;;;7.57;;
5493;SDS011;2769;49.864;8.656;2023-09-12T10:43:18;13.40;;;7.90;;
5493;SDS011;2769;49.864;8.656;2023-09-12T10:45:47;24.93;;;9.00;;
5493;SDS011;2769;49.864;8.656;2023-09-12T10:48:16;19.07;;;8.60;;
5493;SDS011;2769;49.864;8.656;2023-09-12T10:50:44;17.23;;;8.20;;
5493;SDS011;2769;49.864;8.656;2023-09-12T10:53:13;17.67;;;8.57;;
5493;SDS011;2769;49.864;8.656;2023-09-12T10:55:54;19.83;;;8.70;;
5493;SDS011;2769;49.864;8.656;2023-09-12T10:58:26;12.73;;;7.77;;
5493;SDS011;2769;49.864;8.656;2023-09-12T11:03:51;13.50;;;7.50;;
5493;SDS011;2769;49.864;8.656;2023-09-12T11:06:20;16.50;;;7.53;;
5493;SDS011;2769;49.864;8.656;2023-09-12T11:11:46;13.97;;;7.23;;
5493;SDS011;2769;49.864;8.656;2023-09-12T11:14:17;12.20;;;7.00;;
5493;SDS011;2769;49.864;8.656;2023-09-12T11:19:47;13.50;;;7.77;;
5493;SDS011;2769;49.864;8.656;2023-09-12T11:22:22;15.80;;;7.10;;
5493;SDS011;2769;49.864;8.656;2023-09-12T11:24:51;14.93;;;8.30;;
5493;SDS011;2769;49.864;8.656;2023-09-12T11:27:19;15.23;;;7.70;;
5493;SDS011;2769;49.864;8.656;2023-09-12T11:29:49;13.60;;;8.07;;
5493;SDS011;2769;49.864;8.656;2023-09-12T11:32:35;15.10;;;7.57;;
5493;SDS011;2769;49.864;8.656;2023-09-12T11:35:04;16.90;;;7.53;;
5493;SDS011;2769;49.864;8.656;2023-09-12T11:37:33;8.80;;;6.53;;
5493;SDS011;2769;49.864;8.656;2023-09-12T11:40:14;16.17;;;7.32;;
5493;SDS011;2769;49.864;8.656;2023-09-12T11:42:44;11.30;;;6.95;;
5493;SDS011;2769;49.864;8.656;2023-09-12T11:45:14;16.63;;;6.50;;
5493;SDS011;2769;49.864;8.656;2023-09-12T11:47:42;12.23;;;6.70;;
5493;SDS011;2769;49.864;8.656;2023-09-12T11:50:25;9.48;;;6.32;;
5493;SDS011;2769;49.864;8.656;2023-09-12T11:52:58;11.05;;;6.43;;
5493;SDS011;2769;49.864;8.656;2023-09-12T11:55:27;12.25;;;6.05;;
5493;SDS011;2769;49.864;8.656;2023-09-12T11:57:57;15.15;;;8.60;;
5493;SDS011;2769;49.864;8.656;2023-09-12T12:00:26;10.45;;;6.20;;
5493;SDS011;2769;49.864;8.656;2023-09-12T12:02:58;8.45;;;6.50;;
5493;SDS011;2769;49.864;8.656;2023-09-12T12:05:26;14.48;;;7.57;;
5493;SDS011;2769;49.864;8.656;2023-09-12T12:07:54;10.73;;;6.45;;
5493;SDS011;2769;49.864;8.656;2023-09-12T12:10:42;15.32;;;6.28;;
5493;SDS011;2769;49.864;8.656;2023-09-12T12:13:11;10.88;;;6.63;;
5493;SDS011;2769;49.864;8.656;2023-09-12T12:15:40;12.15;;;7.18;;
5493;SDS011;2769;49.864;8.656;2023-09-12T12:18:08;9.63;;;7.28;;
5493;SDS011;2769;49.864;8.656;2023-09-12T12:20:36;13.73;;;6.83;;
5493;SDS011;2769;49.864;8.656;2023-09-12T12:23:05;11.67;;;7.47;;
5493;SDS011;2769;49.864;8.656;2023-09-12T12:25:33;14.17;;;7.57;;
5493;SDS011;2769;49.864;8.656;2023-09-12T12:28:01;12.90;;;7.80;;
5493;SDS011;2769;49.864;8.656;2023-09-12T12:30:30;16.07;;;8.10;;
5493;SDS011;2769;49.864;8.656;2023-09-12T12:33:01;17.67;;;8.47;;
5493;SDS011;2769;49.864;8.656;2023-09-12T12:35:59;8.57;;;7.70;;
5493;SDS011;2769;49.864;8.656;2023-09-12T12:38:27;16.47;;;7.87;;
5493;SDS011;2769;49.864;8.656;2023-09-12T12:40:55;12.43;;;8.63;;
5493;SDS011;2769;49.864;8.656;2023-09-12T12:43:23;10.77;;;7.63;;
5493;SDS011;2769;49.864;8.656;2023-09-12T12:45:52;15.90;;;7.95;;
5493;SDS011;2769;49.864;8.656;2023-09-12T12:48:30;17.23;;;7.32;;
5493;SDS011;2769;49.864;8.656;2023-09-12T12:50:58;10.30;;;6.88;;
5493;SDS011;2769;49.864;8.656;2023-09-12T12:53:36;10.20;;;6.60;;
5493;SDS011;2769;49.864;8.656;2023-09-12T12:56:19;11.52;;;7.18;;
5493;SDS011;2769;49.864;8.656;2023-09-12T12:58:48;11.55;;;6.68;;
5493;SDS011;2769;49.864;8.656;2023-09-12T13:01:17;16.20;;;7.57;;
5493;SDS011;2769;49.864;8.656;2023-09-12T13:03:47;12.65;;;6.95;;
5493;SDS011;2769;49.864;8.656;2023-09-12T13:06:17;11.30;;;7.70;;
5493;SDS011;2769;49.864;8.656;2023-09-12T13:08:45;14.50;;;7.65;;
5493;SDS011;2769;49.864;8.656;2023-09-12T13:11:15;14.13;;;7.82;;
5493;SDS011;2769;49.864;8.656;2023-09-12T13:13:44;11.63;;;6.60;;
5493;SDS011;2769;49.864;8.656;2023-09-12T13:16:12;15.93;;;7.53;;
5493;SDS011;2769;49.864;8.656;2023-09-12T13:18:41;9.63;;;7.28;;
5493;SDS011;2769;49.864;8.656;2023-09-12T13:21:11;11.10;;;6.93;;
5493;SDS011;2769;49.864;8.656;2023-09-12T13:23:39;9.15;;;7.03;;
5493;SDS011;2769;49.864;8.656;2023-09-12T13:26:08;10.07;;;6.25;;
5493;SDS011;2769;49.864;8.656;2023-09-12T13:28:37;9.95;;;5.78;;
5493;SDS011;2769;49.864;8.656;2023-09-12T13:31:05;10.90;;;5.57;;
5493;SDS011;2769;49.864;8.656;2023-09-12T13:33:33;11.52;;;5.30;;
5493;SDS011;2769;49.864;8.656;2023-09-12T13:36:02;9.68;;;6.78;;
5493;SDS011;2769;49.864;8.656;2023-09-12T13:38:31;12.13;;;5.88;;
5493;SDS011;2769;49.864;8.656;2023-09-12T13:40:59;8.70;;;5.38;;
5493;SDS011;2769;49.864;8.656;2023-09-12T13:43:27;8.35;;;5.47;;
5493;SDS011;2769;49.864;8.656;2023-09-12T13:45:55;9.40;;;5.38;;
5493;SDS011;2769;49.864;8.656;2023-09-12T13:48:23;10.18;;;5.25;;
5493;SDS011;2769;49.864;8.656;2023-09-12T13:50:52;9.32;;;5.72;;
5493;SDS011;2769;49.864;8.656;2023-09-12T13:53:20;14.77;;;6.05;;
5493;SDS011;2769;49.864;8.656;2023-09-12T13:55:49;6.35;;;5.38;;
5493;SDS011;2769;49.864;8.656;2023-09-12T13:58:19;6.70;;;5.70;;
5493;SDS011;2769;49.864;8.656;2023-09-12T14:00:47;9.93;;;5.90;;
5493;SDS011;2769;49.864;8.656;2023-09-12T14:03:15;10.68;;;5.90;;
5493;SDS011;2769;49.864;8.656;2023-09-12T14:05:44;6.75;;;6.13;;
5493;SDS011;2769;49.864;8.656;2023-09-12T14:08:12;12.90;;;5.82;;
5493;SDS011;2769;49.864;8.656;2023-09-12T14:10:40;7.57;;;5.47;;
5493;SDS011;2769;49.864;8.656;2023-09-12T14:13:10;10.38;;;5.55;;
5493;SDS011;2769;49.864;8.656;2023-09-12T14:15:41;7.22;;;5.70;;
5493;SDS011;2769;49.864;8.656;2023-09-12T14:18:09;6.90;;;5.05;;
5493;SDS011;2769;49.864;8.656;2023-09-12T14:20:38;9.02;;;5.38;;
5493;SDS011;2769;49.864;8.656;2023-09-12T14:23:06;6.13;;;4.65;;
5493;SDS011;2769;49.864;8.656;2023-09-12T14:25:34;13.07;;;5.13;;
5493;SDS011;2769;49.864;8.656;2023-09-12T14:28:04;8.30;;;4.68;;
5493;SDS011;2769;49.864;8.656;2023-09-12T14:30:35;5.55;;;5.05;;
5493;SDS011;2769;49.864;8.656;2023-09-12T14:33:04;6.47;;;5.32;;
5493;SDS011;2769;49.864;8.656;2023-09-12T14:35:32;9.27;;;5.07;;
5493;SDS011;2769;49.864;8.656;2023-09-12T14:38:00;12.30;;;4.60;;
5493;SDS011;2769;49.864;8.656;2023-09-12T14:40:28;7.30;;;4.70;;
5493;SDS011;2769;49.864;8.656;2023-09-12T14:42:56;7.30;;;4.68;;
5493;SDS011;2769;49.864;8.656;2023-09-12T14:45:24;9.77;;;4.60;;
5493;SDS011;2769;49.864;8.656;2023-09-12T14:47:53;4.63;;;4.18;;
5493;SDS011;2769;49.864;8.656;2023-09-12T14:50:22;14.32;;;5.47;;
5493;SDS011;2769;49.864;8.656;2023-09-12T14:53:06;6.53;;;4.70;;
5493;SDS011;2769;49.864;8.656;2023-09-12T14:55:34;8.30;;;5.13;;
5493;SDS011;2769;49.864;8.656;2023-09-12T14:58:02;7.70;;;5.05;;
5493;SDS011;2769;49.864;8.656;2023-09-12T15:00:30;5.55;;;4.72;;
5493;SDS011;2769;49.864;8.656;2023-09-12T15:03:01;7.72;;;5.57;;
5493;SDS011;2769;49.864;8.656;2023-09-12T15:05:29;8.95;;;4.30;;
5493;SDS011;2769;49.864;8.656;2023-09-12T15:07:57;8.40;;;4.80;;
5493;SDS011;2769;49.864;8.656;2023-09-12T15:10:25;8.48;;;4.53;;
5493;SDS011;2769;49.864;8.656;2023-09-12T15:12:53;9.68;;;4.53;;
5493;SDS011;2769;49.864;8.656;2023-09-12T15:15:21;6.72;;;4.55;;
5493;SDS011;2769;49.864;8.656;2023-09-12T15:17:50;6.28;;;3.85;;
5493;SDS011;2769;49.864;8.656;2023-09-12T15:20:19;4.80;;;3.60;;
5493;SDS011;2769;49.864;8.656;2023-09-12T15:22:47;5.10;;;3.97;;
5493;SDS011;2769;49.864;8.656;2023-09-12T15:25:15;5.43;;;3.90;;
5493;SDS011;2769;49.864;8.656;2023-09-12T15:27:43;8.18;;;3.90;;
5493;SDS011;2769;49.864;8.656;2023-09-12T15:30:11;5.97;;;4.32;;
5493;SDS011;2769;49.864;8.656;2023-09-12T15:32:40;6.05;;;4.63;;
5493;SDS011;2769;49.864;8.656;2023-09-12T15:35:08;5.35;;;4.45;;
5493;SDS011;2769;49.864;8.656;2023-09-12T15:37:38;6.47;;;4.18;;
5493;SDS011;2769;49.864;8.656;2023-09-12T15:40:07;7.07;;;4.40;;
5493;SDS011;2769;49.864;8.656;2023-09-12T15:42:35;10.02;;;5.00;;
5493;SDS011;2769;49.864;8.656;2023-09-12T15:45:03;5.47;;;4.80;;
5493;SDS011;2769;49.864;8.656;2023-09-12T15:47:35;8.10;;;4.50;;
5493;SDS011;2769;49.864;8.656;2023-09-12T15:50:03;7.87;;;5.03;;
5493;SDS011;2769;49.864;8.656;2023-09-12T15:52:32;5.10;;;4.60;;
5493;SDS011;2769;49.864;8.656;2023-09-12T15:55:05;5.40;;;4.87;;
5493;SDS011;2769;49.864;8.656;2023-09-12T15:57:34;8.30;;;5.00;;
5493;SDS011;2769;49.864;8.656;2023-09-12T16:00:04;7.50;;;4.50;;
5493;SDS011;2769;49.864;8.656;2023-09-12T16:02:37;7.57;;;5.10;;
5493;SDS011;2769;49.864;8.656;2023-09-12T16:05:06;8.37;;;5.10;;